createdAt,value
2018-11-05T00:01:33.624Z,24.30
2018-11-05T00:04:02.526Z,24.23
2018-11-05T00:06:31.440Z,23.37
2018-11-05T00:09:00.338Z,23.40
2018-11-05T00:11:29.303Z,23.50
2018-11-05T00:13:58.181Z,24.27
2018-11-05T00:16:27.103Z,24.93
2018-11-05T00:18:55.995Z,24.63
2018-11-05T00:21:24.962Z,25.83
2018-11-05T00:23:53.815Z,25.03
2018-11-05T00:26:22.777Z,25.20
2018-11-05T00:28:51.672Z,23.83
2018-11-05T00:31:20.580Z,24.67
2018-11-05T00:33:49.419Z,23.67
2018-11-05T00:36:18.271Z,24.90
2018-11-05T00:38:47.201Z,23.97
2018-11-05T00:41:16.069Z,23.03
2018-11-05T00:43:45.008Z,24.37
2018-11-05T00:46:13.899Z,23.43
2018-11-05T00:48:42.842Z,22.93
2018-11-05T00:51:11.840Z,24.07
2018-11-05T00:53:40.727Z,23.23
2018-11-05T00:56:09.663Z,23.47
2018-11-05T00:58:38.526Z,24.27
2018-11-05T01:01:07.449Z,23.67
2018-11-05T01:03:36.363Z,25.33
2018-11-05T01:06:05.329Z,23.53
2018-11-05T01:08:34.219Z,23.63
2018-11-05T01:11:03.080Z,24.27
2018-11-05T01:13:31.961Z,23.37
2018-11-05T01:16:01.763Z,23.87
2018-11-05T01:18:30.723Z,23.43
2018-11-05T01:20:59.606Z,22.83
2018-11-05T01:23:28.512Z,22.43
2018-11-05T01:25:57.411Z,23.67
2018-11-05T01:28:26.300Z,23.90
2018-11-05T01:30:55.170Z,22.97
2018-11-05T01:33:24.157Z,22.97
2018-11-05T01:35:53.037Z,22.13
2018-11-05T01:38:21.985Z,22.10
2018-11-05T01:40:50.878Z,23.97
2018-11-05T01:43:19.721Z,23.67
2018-11-05T01:45:48.607Z,23.57
2018-11-05T01:48:17.554Z,23.17
2018-11-05T01:50:46.429Z,23.17
2018-11-05T01:53:15.352Z,22.50
2018-11-05T01:55:44.272Z,22.43
2018-11-05T01:58:13.187Z,22.87
2018-11-05T02:00:42.126Z,20.77
2018-11-05T02:03:11.013Z,22.73
2018-11-05T02:05:39.894Z,23.13
2018-11-05T02:08:08.840Z,21.33
2018-11-05T02:10:37.775Z,22.93
2018-11-05T02:13:06.716Z,22.33
2018-11-05T02:15:35.658Z,24.10
2018-11-05T02:18:04.579Z,22.97
2018-11-05T02:20:33.574Z,22.73
2018-11-05T02:23:02.484Z,24.03
2018-11-05T02:25:31.451Z,23.10
2018-11-05T02:28:00.421Z,24.13
2018-11-05T02:30:29.412Z,22.80
2018-11-05T02:32:58.267Z,23.73
2018-11-05T02:35:27.161Z,25.33
2018-11-05T02:37:56.084Z,24.80
2018-11-05T02:40:24.960Z,24.37
2018-11-05T02:42:53.863Z,23.97
2018-11-05T02:45:22.731Z,24.27
2018-11-05T02:47:51.664Z,24.70
2018-11-05T02:50:20.550Z,24.87
2018-11-05T02:52:49.479Z,24.13
2018-11-05T02:55:18.390Z,23.57
2018-11-05T02:57:47.273Z,23.27
2018-11-05T03:00:17.547Z,24.07
2018-11-05T03:02:46.528Z,24.60
2018-11-05T03:05:17.581Z,24.10
2018-11-05T03:07:47.168Z,22.97
2018-11-05T03:10:16.232Z,23.33
2018-11-05T03:12:45.984Z,23.30
2018-11-05T03:15:16.200Z,22.87
2018-11-05T03:17:45.143Z,22.90
2018-11-05T03:20:15.056Z,25.07
2018-11-05T03:22:44.637Z,24.00
2018-11-05T03:25:13.576Z,24.70
2018-11-05T03:27:42.608Z,23.93
2018-11-05T03:30:13.729Z,24.53
2018-11-05T03:32:42.733Z,24.37
2018-11-05T03:35:12.699Z,23.37
2018-11-05T03:37:42.668Z,24.60
2018-11-05T03:40:12.523Z,23.30
2018-11-05T03:42:42.205Z,23.20
2018-11-05T03:45:12.792Z,23.13
2018-11-05T03:47:41.780Z,24.53
2018-11-05T03:50:15.041Z,24.17
2018-11-05T03:52:44.879Z,24.00
2018-11-05T03:55:14.347Z,24.63
2018-11-05T03:57:43.236Z,24.63
2018-11-05T04:00:13.939Z,24.10
2018-11-05T04:02:42.903Z,26.03
2018-11-05T04:05:11.900Z,24.10
2018-11-05T04:07:41.172Z,24.60
2018-11-05T04:10:11.368Z,23.93
2018-11-05T04:12:40.283Z,26.73
2018-11-05T04:15:09.536Z,25.00
2018-11-05T04:17:38.525Z,24.23
2018-11-05T04:20:09.685Z,25.93
2018-11-05T04:22:38.596Z,24.33
2018-11-05T04:25:07.527Z,24.53
2018-11-05T04:27:36.424Z,24.63
2018-11-05T04:30:07.436Z,25.57
2018-11-05T04:32:36.352Z,26.10
2018-11-05T04:35:05.295Z,26.20
2018-11-05T04:37:34.214Z,25.50
2018-11-05T04:40:03.123Z,26.17
2018-11-05T04:42:32.027Z,26.60
2018-11-05T04:45:01.033Z,24.83
2018-11-05T04:47:29.999Z,25.63
2018-11-05T04:49:58.895Z,25.90
2018-11-05T04:52:27.803Z,26.87
2018-11-05T04:54:56.667Z,26.43
2018-11-05T04:57:25.573Z,26.10
2018-11-05T04:59:54.460Z,26.20
2018-11-05T05:02:23.335Z,26.50
2018-11-05T05:04:52.244Z,26.23
2018-11-05T05:07:21.144Z,28.17
2018-11-05T05:09:50.115Z,27.47
2018-11-05T05:12:19.150Z,27.57
2018-11-05T05:14:48.119Z,29.40
2018-11-05T05:17:17.021Z,26.93
2018-11-05T05:19:45.913Z,29.43
2018-11-05T05:22:14.888Z,27.27
2018-11-05T05:24:43.816Z,28.13
2018-11-05T05:27:12.762Z,28.77
2018-11-05T05:29:41.669Z,29.73
2018-11-05T05:32:10.568Z,28.43
2018-11-05T05:34:39.469Z,30.93
2018-11-05T05:37:08.380Z,30.83
2018-11-05T05:39:37.329Z,31.07
2018-11-05T05:42:06.724Z,29.87
2018-11-05T05:44:35.598Z,31.13
2018-11-05T05:47:04.601Z,31.37
2018-11-05T05:49:33.499Z,32.40
2018-11-05T05:52:02.436Z,31.20
2018-11-05T05:54:31.405Z,32.47
2018-11-05T05:57:00.300Z,32.80
2018-11-05T05:59:29.379Z,32.37
2018-11-05T06:01:58.428Z,32.43
2018-11-05T06:04:27.500Z,32.93
2018-11-05T06:06:56.430Z,34.30
2018-11-05T06:09:25.390Z,35.17
2018-11-05T06:11:54.353Z,34.23
2018-11-05T06:14:23.238Z,34.67
2018-11-05T06:16:52.194Z,35.03
2018-11-05T06:19:21.069Z,35.07
2018-11-05T06:21:50.031Z,34.00
2018-11-05T06:24:18.908Z,34.23
2018-11-05T06:26:47.876Z,34.53
2018-11-05T06:29:16.741Z,35.43
2018-11-05T06:31:45.684Z,35.00
2018-11-05T06:34:14.555Z,36.57
2018-11-05T06:36:43.443Z,34.10
2018-11-05T06:39:13.739Z,34.93
2018-11-05T06:41:43.136Z,34.10
2018-11-05T06:44:12.129Z,34.70
2018-11-05T06:46:41.077Z,34.60
2018-11-05T06:49:09.977Z,35.13
2018-11-05T06:51:38.907Z,35.80
2018-11-05T06:54:07.836Z,36.67
2018-11-05T06:56:36.720Z,36.53
2018-11-05T06:59:05.844Z,36.73
2018-11-05T07:01:34.709Z,36.83
2018-11-05T07:04:03.600Z,37.97
2018-11-05T07:06:32.550Z,37.57
2018-11-05T07:09:01.550Z,36.50
2018-11-05T07:11:30.437Z,38.03
2018-11-05T07:13:59.371Z,37.50
2018-11-05T07:16:28.285Z,38.90
2018-11-05T07:18:57.317Z,37.83
2018-11-05T07:21:26.167Z,38.13
2018-11-05T07:23:55.070Z,38.87
2018-11-05T07:26:23.964Z,38.13
2018-11-05T07:28:52.913Z,38.03
2018-11-05T07:31:21.784Z,39.83
2018-11-05T07:33:50.837Z,38.97
2018-11-05T07:36:19.741Z,41.30
2018-11-05T07:38:48.670Z,39.23
2018-11-05T07:41:17.542Z,40.60
2018-11-05T07:43:46.448Z,40.60
2018-11-05T07:46:15.352Z,42.27
2018-11-05T07:48:44.248Z,41.23
2018-11-05T07:51:13.192Z,40.90
2018-11-05T07:53:42.128Z,41.37
2018-11-05T07:56:11.036Z,42.27
2018-11-05T07:58:40.011Z,42.83
2018-11-05T08:01:08.908Z,43.03
2018-11-05T08:03:37.827Z,48.00
2018-11-05T08:06:06.767Z,44.10
2018-11-05T08:08:35.714Z,43.23
2018-11-05T08:11:04.680Z,42.63
2018-11-05T08:13:33.583Z,42.80
2018-11-05T08:16:02.541Z,42.80
2018-11-05T08:18:31.452Z,42.27
2018-11-05T08:21:00.338Z,44.17
2018-11-05T08:23:29.251Z,45.10
2018-11-05T08:25:58.125Z,47.23
2018-11-05T08:28:27.021Z,58.87
2018-11-05T08:30:55.903Z,48.77
2018-11-05T08:33:24.798Z,44.63
2018-11-05T08:35:53.679Z,50.33
2018-11-05T08:38:22.572Z,44.37
2018-11-05T08:40:51.444Z,48.33
2018-11-05T08:43:20.340Z,45.57
2018-11-05T08:45:49.299Z,44.90
2018-11-05T08:48:18.140Z,47.50
2018-11-05T08:50:47.159Z,46.33
2018-11-05T08:53:16.060Z,49.10
2018-11-05T08:55:44.931Z,46.60
2018-11-05T08:58:13.857Z,48.30
2018-11-05T09:00:49.242Z,47.33
2018-11-05T09:03:18.170Z,47.97
2018-11-05T09:05:47.035Z,48.37
2018-11-05T09:08:15.927Z,47.97
2018-11-05T09:10:45.088Z,47.93
2018-11-05T09:13:13.823Z,47.20
2018-11-05T09:15:42.690Z,49.23
2018-11-05T09:18:11.637Z,50.30
2018-11-05T09:20:40.611Z,50.50
2018-11-05T09:23:09.584Z,48.37
2018-11-05T09:25:38.478Z,50.80
2018-11-05T09:28:07.668Z,50.40
2018-11-05T09:30:36.456Z,49.40
2018-11-05T09:33:05.704Z,48.70
2018-11-05T09:35:34.595Z,49.17
2018-11-05T09:38:03.464Z,49.23
2018-11-05T09:40:32.331Z,48.00
2018-11-05T09:43:01.208Z,48.83
2018-11-05T09:45:30.406Z,51.90
2018-11-05T09:47:59.294Z,50.13
2018-11-05T09:50:28.214Z,51.37
2018-11-05T09:52:57.108Z,52.50
2018-11-05T09:55:26.041Z,51.27
2018-11-05T09:57:54.944Z,49.40
2018-11-05T10:00:26.839Z,54.50
2018-11-05T10:02:56.838Z,53.87
2018-11-05T10:05:25.789Z,52.77
2018-11-05T10:07:54.678Z,51.70
2018-11-05T10:10:23.667Z,53.30
2018-11-05T10:12:52.557Z,52.63
2018-11-05T10:15:21.468Z,50.23
2018-11-05T10:17:50.357Z,51.50
2018-11-05T10:20:21.667Z,52.13
2018-11-05T10:22:50.648Z,52.53
2018-11-05T10:25:19.898Z,52.07
2018-11-05T10:27:49.928Z,51.57
2018-11-05T10:30:25.868Z,51.53
2018-11-05T10:32:54.743Z,53.67
2018-11-05T10:35:57.823Z,50.77
2018-11-05T10:38:27.069Z,57.27
2018-11-05T10:40:56.020Z,60.93
2018-11-05T10:43:24.960Z,54.13
2018-11-05T10:45:54.006Z,51.97
2018-11-05T10:48:22.966Z,56.60
2018-11-05T10:50:51.840Z,55.97
2018-11-05T10:53:21.310Z,49.53
2018-11-05T10:55:50.279Z,49.60
2018-11-05T10:58:19.364Z,50.17
2018-11-05T11:00:53.338Z,51.27
2018-11-05T11:03:22.242Z,51.47
2018-11-05T11:05:51.098Z,50.50
2018-11-05T11:08:20.052Z,50.30
2018-11-05T11:10:48.924Z,50.57
2018-11-05T11:13:17.809Z,49.43
2018-11-05T11:15:46.676Z,50.63
2018-11-05T11:18:15.591Z,49.87
2018-11-05T11:20:44.529Z,53.20
2018-11-05T11:23:13.389Z,49.57
2018-11-05T11:25:42.331Z,50.67
2018-11-05T11:28:11.272Z,48.97
2018-11-05T11:30:40.161Z,48.37
2018-11-05T11:33:09.753Z,48.97
2018-11-05T11:35:38.620Z,48.23
2018-11-05T11:38:07.544Z,49.10
2018-11-05T11:40:36.455Z,50.77
2018-11-05T11:43:05.407Z,48.77
2018-11-05T11:45:34.397Z,49.13
2018-11-05T11:48:03.297Z,49.63
2018-11-05T11:50:32.237Z,48.20
2018-11-05T11:53:01.109Z,50.60
2018-11-05T11:55:30.059Z,49.13
2018-11-05T11:57:58.922Z,49.53
2018-11-05T12:00:27.811Z,48.20
2018-11-05T12:02:56.697Z,48.97
2018-11-05T12:05:25.823Z,48.47
2018-11-05T12:07:54.579Z,47.53
2018-11-05T12:10:24.725Z,47.37
2018-11-05T12:12:53.677Z,48.13
2018-11-05T12:15:23.314Z,50.30
2018-11-05T12:17:53.088Z,48.70
2018-11-05T12:20:23.421Z,47.97
2018-11-05T12:22:52.957Z,46.93
2018-11-05T12:25:21.921Z,47.60
2018-11-05T12:27:50.882Z,50.77
2018-11-05T12:30:21.973Z,46.90
2018-11-05T12:32:52.015Z,48.77
2018-11-05T12:35:20.939Z,48.57
2018-11-05T12:37:50.994Z,47.53
2018-11-05T12:40:20.869Z,48.93
2018-11-05T12:42:50.681Z,44.73
2018-11-05T12:45:19.661Z,47.23
2018-11-05T12:47:48.648Z,45.37
2018-11-05T12:50:19.917Z,47.47
2018-11-05T12:52:49.700Z,47.03
2018-11-05T12:55:18.622Z,48.77
2018-11-05T12:57:47.920Z,48.73
2018-11-05T13:00:19.289Z,49.70
2018-11-05T13:02:54.742Z,48.37
2018-11-05T13:05:24.799Z,50.40
2018-11-05T13:07:54.023Z,45.43
2018-11-05T13:10:23.441Z,45.37
2018-11-05T13:12:52.762Z,44.67
2018-11-05T13:15:21.995Z,45.77
2018-11-05T13:17:51.367Z,44.33
2018-11-05T13:20:21.704Z,45.53
2018-11-05T13:22:51.135Z,47.03
2018-11-05T13:25:20.445Z,48.33
2018-11-05T13:27:50.832Z,43.80
2018-11-05T13:30:19.987Z,45.47
2018-11-05T13:32:49.247Z,47.40
2018-11-05T13:35:19.945Z,49.43
2018-11-05T13:37:49.667Z,46.83
2018-11-05T13:40:20.775Z,48.17
2018-11-05T13:42:50.424Z,62.93
2018-11-05T13:45:20.375Z,46.53
2018-11-05T13:47:50.272Z,50.97
2018-11-05T13:50:19.310Z,46.67
2018-11-05T13:52:48.255Z,49.90
2018-11-05T13:55:18.069Z,47.00
2018-11-05T13:57:48.186Z,45.13
2018-11-05T14:00:18.723Z,47.93
2018-11-05T14:02:48.125Z,47.13
2018-11-05T14:05:17.251Z,45.70
2018-11-05T14:07:46.427Z,51.77
2018-11-05T14:10:18.024Z,47.80
2018-11-05T14:12:48.091Z,54.27
2018-11-05T14:15:17.283Z,50.77
2018-11-05T14:17:46.819Z,47.87
2018-11-05T14:20:17.453Z,49.80
2018-11-05T14:22:46.770Z,64.57
2018-11-05T14:25:18.121Z,48.67
2018-11-05T14:27:49.192Z,52.13
2018-11-05T14:30:18.859Z,50.73
2018-11-05T14:32:49.175Z,51.83
2018-11-05T14:35:18.437Z,51.53
2018-11-05T14:37:47.672Z,53.17
2018-11-05T14:40:17.795Z,49.10
2018-11-05T14:42:47.008Z,51.27
2018-11-05T14:45:17.703Z,53.90
2018-11-05T14:47:47.288Z,55.37
2018-11-05T14:50:18.343Z,53.97
2018-11-05T14:52:47.674Z,54.27
2018-11-05T14:55:18.192Z,53.30
2018-11-05T14:57:48.376Z,53.50
2018-11-05T15:00:19.820Z,54.20
2018-11-05T15:02:49.703Z,53.13
2018-11-05T15:05:18.906Z,56.67
2018-11-05T15:07:48.782Z,59.10
2018-11-05T15:10:19.342Z,57.37
2018-11-05T15:12:48.547Z,57.93
2018-11-05T15:15:18.298Z,62.80
2018-11-05T15:17:47.963Z,67.80
2018-11-05T15:20:18.754Z,62.30
2018-11-05T15:22:47.932Z,57.50
2018-11-05T15:25:17.415Z,56.37
2018-11-05T15:27:46.717Z,57.27
2018-11-05T15:30:18.391Z,57.43
2018-11-05T15:32:47.650Z,57.67
2018-11-05T15:35:16.900Z,56.60
2018-11-05T15:37:46.305Z,59.00
2018-11-05T15:40:16.767Z,59.53
2018-11-05T15:42:46.039Z,57.87
2018-11-05T15:45:16.588Z,57.60
2018-11-05T15:47:45.803Z,58.60
2018-11-05T15:50:18.232Z,65.87
2018-11-05T15:52:47.789Z,64.97
2018-11-05T15:55:16.659Z,67.87
2018-11-05T15:57:45.847Z,65.07
2018-11-05T16:00:18.956Z,85.90
2018-11-05T16:02:49.956Z,107.23
2018-11-05T16:05:19.445Z,100.83
2018-11-05T16:07:48.696Z,92.07
2018-11-05T16:10:17.888Z,72.77
2018-11-05T16:12:47.161Z,71.07
2018-11-05T16:15:16.296Z,67.43
2018-11-05T16:17:45.510Z,80.40
2018-11-05T16:20:21.106Z,198.50
2018-11-05T16:22:51.424Z,118.97
2018-11-05T16:25:21.801Z,81.03
2018-11-05T16:27:51.045Z,78.77
2018-11-05T16:30:21.467Z,82.07
2018-11-05T16:32:51.458Z,79.83
2018-11-05T16:35:21.761Z,83.83
2018-11-05T16:37:51.015Z,97.43
2018-11-05T16:40:20.797Z,95.13
2018-11-05T16:42:51.411Z,102.80
2018-11-05T16:45:20.756Z,121.57
2018-11-05T16:47:50.359Z,104.20
2018-11-05T16:50:24.204Z,87.50
2018-11-05T16:53:09.398Z,78.40
2018-11-05T16:55:38.936Z,74.90
2018-11-05T16:58:08.156Z,73.40
2018-11-05T17:00:37.391Z,73.03
2018-11-05T17:03:07.535Z,76.27
2018-11-05T17:05:36.685Z,89.07
2018-11-05T17:08:06.183Z,98.37
2018-11-05T17:10:35.401Z,114.50
2018-11-05T17:13:04.711Z,107.90
2018-11-05T17:15:34.588Z,119.43
2018-11-05T17:18:03.831Z,148.73
2018-11-05T17:20:33.064Z,156.97
2018-11-05T17:23:02.263Z,132.87
2018-11-05T17:25:31.472Z,122.03
2018-11-05T17:28:00.728Z,113.00
2018-11-05T17:30:29.890Z,111.07
2018-11-05T17:32:59.681Z,114.33
2018-11-05T17:35:29.007Z,135.60
2018-11-05T17:37:58.243Z,135.17
2018-11-05T17:40:27.432Z,133.83
2018-11-05T17:42:56.631Z,115.03
2018-11-05T17:45:25.782Z,110.27
2018-11-05T17:47:54.967Z,114.43
2018-11-05T17:50:24.479Z,111.30
2018-11-05T17:52:53.748Z,111.00
2018-11-05T17:55:23.034Z,111.63
2018-11-05T17:57:52.233Z,113.80
2018-11-05T18:00:22.610Z,112.27
2018-11-05T18:02:51.837Z,115.07
2018-11-05T18:05:21.180Z,110.20
2018-11-05T18:07:50.342Z,116.70
2018-11-05T18:10:19.543Z,122.27
2018-11-05T18:12:48.749Z,109.33
2018-11-05T18:15:17.933Z,104.90
2018-11-05T18:17:47.680Z,116.33
2018-11-05T18:20:17.459Z,113.83
2018-11-05T18:22:46.669Z,125.97
2018-11-05T18:25:17.154Z,119.40
2018-11-05T18:27:46.622Z,116.83
2018-11-05T18:30:16.496Z,108.63
2018-11-05T18:32:45.648Z,118.63
2018-11-05T18:35:15.581Z,121.87
2018-11-05T18:37:46.370Z,109.50
2018-11-05T18:40:16.174Z,102.10
2018-11-05T18:42:45.649Z,104.03
2018-11-05T18:45:15.293Z,107.87
2018-11-05T18:47:44.581Z,104.27
2018-11-05T18:50:15.145Z,102.63
2018-11-05T18:52:44.883Z,98.80
2018-11-05T18:55:15.716Z,97.43
2018-11-05T18:57:44.949Z,95.63
2018-11-05T19:00:24.045Z,95.77
2018-11-05T19:02:54.266Z,97.80
2018-11-05T19:05:24.410Z,96.77
2018-11-05T19:07:53.594Z,97.30
2018-11-05T19:10:23.589Z,102.27
2018-11-05T19:12:53.684Z,98.87
2018-11-05T19:15:22.888Z,99.33
2018-11-05T19:17:52.439Z,103.60
2018-11-05T19:20:21.632Z,100.07
2018-11-05T19:22:50.989Z,102.33
2018-11-05T19:25:20.109Z,103.23
2018-11-05T19:27:49.348Z,99.77
2018-11-05T19:30:20.978Z,98.90
2018-11-05T19:32:50.138Z,95.13
2018-11-05T19:35:19.282Z,100.30
2018-11-05T19:37:48.517Z,106.03
2018-11-05T19:40:18.414Z,102.90
2018-11-05T19:42:49.433Z,106.80
2018-11-05T19:45:22.976Z,103.63
2018-11-05T19:47:52.579Z,102.83
2018-11-05T19:50:23.315Z,106.90
2018-11-05T19:52:53.304Z,100.70
2018-11-05T19:55:22.648Z,98.33
2018-11-05T19:57:52.796Z,97.27
2018-11-05T20:00:23.757Z,89.97
2018-11-05T20:02:53.524Z,100.20
2018-11-05T20:05:23.355Z,88.80
2018-11-05T20:07:54.743Z,88.20
2018-11-05T20:10:23.945Z,84.00
2018-11-05T20:12:53.183Z,87.37
2018-11-05T20:15:22.333Z,82.53
2018-11-05T20:17:52.741Z,82.27
2018-11-05T20:20:25.536Z,76.83
2018-11-05T20:22:55.336Z,83.70
2018-11-05T20:25:24.483Z,85.30
2018-11-05T20:27:53.669Z,84.00
2018-11-05T20:30:24.509Z,84.47
2018-11-05T20:32:55.425Z,79.43
2018-11-05T20:35:24.350Z,78.87
2018-11-05T20:37:53.493Z,82.90
2018-11-05T20:40:23.227Z,77.67
2018-11-05T20:42:53.896Z,79.73
2018-11-05T20:45:24.248Z,78.27
2018-11-05T20:47:53.414Z,76.43
2018-11-05T20:50:22.558Z,79.03
2018-11-05T20:52:51.686Z,79.73
2018-11-05T20:55:21.420Z,78.33
2018-11-05T20:57:50.672Z,79.07
2018-11-05T21:00:20.951Z,82.17
2018-11-05T21:02:50.203Z,84.20
2018-11-05T21:05:19.493Z,77.37
2018-11-05T21:07:48.799Z,82.77
2018-11-05T21:10:18.061Z,82.43
2018-11-05T21:13:03.074Z,83.07
2018-11-05T21:15:32.309Z,80.97
2018-11-05T21:18:01.676Z,81.13
2018-11-05T21:20:30.942Z,81.37
2018-11-05T21:23:00.248Z,89.83
2018-11-05T21:25:29.531Z,92.77
2018-11-05T21:27:58.999Z,95.13
2018-11-05T21:30:28.184Z,91.17
2018-11-05T21:32:57.403Z,81.50
2018-11-05T21:35:26.561Z,74.33
2018-11-05T21:37:55.771Z,74.43
2018-11-05T21:40:24.888Z,70.33
2018-11-05T21:42:54.053Z,68.83
2018-11-05T21:45:23.216Z,70.60
2018-11-05T21:47:52.395Z,72.30
2018-11-05T21:50:21.515Z,69.60
2018-11-05T21:52:50.854Z,63.90
2018-11-05T21:55:20.123Z,64.47
2018-11-05T21:57:49.923Z,57.00
2018-11-05T22:00:22.534Z,60.47
2018-11-05T22:02:58.568Z,60.37
2018-11-05T22:05:27.725Z,60.67
2018-11-05T22:07:56.893Z,66.10
2018-11-05T22:10:26.071Z,56.47
2018-11-05T22:12:55.183Z,57.60
2018-11-05T22:15:24.324Z,55.30
2018-11-05T22:17:53.493Z,54.97
2018-11-05T22:20:22.658Z,55.53
2018-11-05T22:22:51.785Z,54.07
2018-11-05T22:25:20.946Z,49.77
2018-11-05T22:27:50.099Z,45.97
2018-11-05T22:30:19.255Z,47.17
2018-11-05T22:32:48.400Z,49.03
2018-11-05T22:35:17.651Z,48.37
2018-11-05T22:37:46.836Z,46.80
2018-11-05T22:40:16.409Z,46.70
2018-11-05T22:42:45.552Z,47.57
2018-11-05T22:45:15.690Z,49.13
2018-11-05T22:47:45.417Z,50.97
2018-11-05T22:50:14.683Z,46.03
2018-11-05T22:52:43.890Z,45.83
2018-11-05T22:55:13.188Z,48.17
2018-11-05T22:57:42.347Z,46.70
2018-11-05T23:00:21.213Z,47.40
2018-11-05T23:02:55.510Z,48.80
2018-11-05T23:05:24.994Z,50.83
2018-11-05T23:07:55.426Z,49.13
2018-11-05T23:10:24.655Z,46.90
2018-11-05T23:12:53.796Z,47.57
2018-11-05T23:15:22.981Z,47.77
2018-11-05T23:17:52.318Z,46.80
2018-11-05T23:20:21.590Z,47.50
2018-11-05T23:22:50.709Z,46.80
2018-11-05T23:25:19.883Z,46.60
2018-11-05T23:27:49.067Z,45.60
2018-11-05T23:30:18.195Z,48.87
2018-11-05T23:32:47.423Z,47.40
2018-11-05T23:35:16.548Z,48.80
2018-11-05T23:37:45.718Z,47.90
2018-11-05T23:40:14.928Z,45.23
2018-11-05T23:42:44.051Z,44.90
2018-11-05T23:45:14.730Z,45.10
2018-11-05T23:47:43.868Z,51.23
2018-11-05T23:50:13.205Z,51.17
2018-11-05T23:52:42.385Z,51.70
2018-11-05T23:55:12.121Z,47.17
2018-11-05T23:57:41.564Z,47.47
